Time;durP1;ratioP1;P1;durP2;ratioP2;P2;SDS_P1;SDS_P2;PMS_P1;PMS_P2;Temp;Humidity;BMP_temperature;BMP_pressure;BME280_temperature;BME280_humidity;BME280_pressure;Samples;Min_cycle;Max_cycle;Signal;HPM_P1;HPM_P2
2023/04/27 00:00:12;;;;;;;0.50;0.30;;;;;;;8.79;100.00;94825.34;5071663;28;20479;-61
2023/04/27 00:02:40;;;;;;;0.70;0.60;;;;;;;8.33;100.00;94816.75;5071359;28;20520;-62
2023/04/27 00:05:10;;;;;;;0.47;0.47;;;;;;;8.44;100.00;94817.53;5071345;28;20483;-61
2023/04/27 00:07:39;;;;;;;0.40;0.30;;;;;;;8.01;100.00;94809.13;5057938;28;20467;-62
2023/04/27 00:10:08;;;;;;;0.57;0.50;;;;;;;7.89;100.00;94816.50;5072426;28;21080;-62
2023/04/27 00:12:37;;;;;;;1.07;1.07;;;;;;;7.70;100.00;94815.44;5071744;28;20443;-62
2023/04/27 00:15:06;;;;;;;0.63;0.63;;;;;;;7.35;100.00;94816.19;5071680;28;20441;-62
2023/04/27 00:17:36;;;;;;;0.40;0.40;;;;;;;7.10;100.00;94816.13;5071342;28;20620;-61
2023/04/27 00:20:07;;;;;;;0.50;0.37;;;;;;;6.97;100.00;94814.78;5071211;28;21120;-62
2023/04/27 00:22:35;;;;;;;13.63;0.40;;;;;;;6.99;100.00;94814.50;5045767;28;20533;-62
2023/04/27 00:25:03;;;;;;;0.80;0.60;;;;;;;7.04;100.00;94811.88;5073612;28;20538;-62
2023/04/27 00:27:32;;;;;;;0.30;0.27;;;;;;;7.20;100.00;94812.72;5075363;28;20487;-60
2023/04/27 00:30:00;;;;;;;1.23;1.23;;;;;;;7.08;100.00;94810.31;5075291;28;20511;-61
2023/04/27 00:32:28;;;;;;;0.40;0.30;;;;;;;7.39;100.00;94804.06;5075273;28;20441;-60
2023/04/27 00:34:58;;;;;;;0.40;0.30;;;;;;;6.99;100.00;94811.88;5074567;28;20444;-61
2023/04/27 00:37:27;;;;;;;0.40;0.30;;;;;;;7.06;100.00;94811.63;5075584;28;20809;-61
2023/04/27 00:39:55;;;;;;;0.50;0.30;;;;;;;6.91;100.00;94805.25;5075437;28;20495;-61
2023/04/27 00:42:23;;;;;;;0.33;0.30;;;;;;;7.09;100.00;94819.81;5075347;28;20975;-61
2023/04/27 00:44:52;;;;;;;0.50;0.40;;;;;;;7.42;100.00;94814.09;5074889;28;20441;-61
2023/04/27 00:47:20;;;;;;;0.57;0.53;;;;;;;7.22;100.00;94819.31;5075359;28;20886;-60
2023/04/27 00:49:49;;;;;;;0.40;0.37;;;;;;;6.94;100.00;94819.75;5074806;28;20449;-60
2023/04/27 00:52:19;;;;;;;0.40;0.30;;;;;;;7.20;100.00;94823.25;5075224;28;20503;-60
2023/04/27 00:54:50;;;;;;;0.80;0.67;;;;;;;7.03;100.00;94818.22;5074937;28;20514;-61
2023/04/27 00:57:19;;;;;;;0.40;0.30;;;;;;;6.89;100.00;94820.53;5074847;28;20480;-61
2023/04/27 00:59:47;;;;;;;0.40;0.30;;;;;;;7.09;100.00;94821.63;5074867;28;20891;-61
2023/04/27 01:02:16;;;;;;;0.50;0.50;;;;;;;6.93;100.00;94826.09;5074602;28;20512;-62
2023/04/27 01:04:44;;;;;;;0.60;0.50;;;;;;;7.02;100.00;94827.16;5048799;28;20449;-62
2023/04/27 01:07:13;;;;;;;0.80;0.67;;;;;;;6.98;100.00;94826.88;5073663;28;20443;-62
2023/04/27 01:09:42;;;;;;;0.53;0.40;;;;;;;6.98;100.00;94834.00;5073704;28;20517;-62
2023/04/27 01:12:11;;;;;;;0.63;0.53;;;;;;;6.82;100.00;94835.00;5073908;28;20506;-61
2023/04/27 01:14:39;;;;;;;0.43;0.40;;;;;;;6.78;100.00;94839.19;5074521;28;20521;-61
2023/04/27 01:17:07;;;;;;;0.50;0.40;;;;;;;7.23;100.00;94839.38;5074055;28;20438;-61
2023/04/27 01:19:37;;;;;;;0.57;0.30;;;;;;;6.87;100.00;94835.81;5073437;28;20440;-61
2023/04/27 01:22:05;;;;;;;0.40;0.40;;;;;;;6.88;100.00;94837.38;5073487;28;20563;-61
2023/04/27 01:24:35;;;;;;;0.40;0.40;;;;;;;6.88;100.00;94837.38;5073641;28;20488;-61
2023/04/27 01:27:04;;;;;;;0.30;0.20;;;;;;;7.28;100.00;94839.38;5073214;28;20450;-61
2023/04/27 01:29:32;;;;;;;0.30;0.20;;;;;;;7.14;100.00;94840.91;5073698;28;20491;-61
2023/04/27 01:32:00;;;;;;;0.40;0.40;;;;;;;7.12;100.00;94848.28;5073951;28;20460;-61
2023/04/27 01:34:29;;;;;;;0.40;0.30;;;;;;;7.28;100.00;94847.28;5073467;28;20448;-61
2023/04/27 01:36:57;;;;;;;0.57;0.57;;;;;;;7.34;100.00;94853.34;5074098;28;20429;-61
2023/04/27 01:39:26;;;;;;;0.33;0.23;;;;;;;7.32;100.00;94848.34;5074210;28;20469;-61
2023/04/27 01:41:55;;;;;;;0.30;0.20;;;;;;;7.44;100.00;94851.53;5074030;28;21000;-60
2023/04/27 01:44:25;;;;;;;0.40;0.30;;;;;;;7.68;100.00;94839.44;5073741;28;20442;-60
2023/04/27 01:46:53;;;;;;;0.73;0.73;;;;;;;7.56;100.00;94838.88;5073730;28;20866;-61
2023/04/27 01:49:22;;;;;;;0.40;0.30;;;;;;;7.58;100.00;94852.63;5073326;28;20433;-61
2023/04/27 01:51:50;;;;;;;0.30;0.20;;;;;;;7.71;100.00;94853.16;5073305;28;20455;-61
2023/04/27 01:54:18;;;;;;;0.63;0.57;;;;;;;7.89;100.00;94852.66;5073376;28;20536;-61
2023/04/27 01:56:47;;;;;;;0.40;0.30;;;;;;;7.93;100.00;94853.69;5073955;28;20491;-61
2023/04/27 01:59:16;;;;;;;3.97;0.67;;;;;;;7.63;100.00;94844.72;5073469;28;20825;-61
2023/04/27 02:01:44;;;;;;;0.40;0.30;;;;;;;7.49;100.00;94850.72;5073616;28;20971;-61
2023/04/27 02:04:13;;;;;;;0.60;0.30;;;;;;;7.37;100.00;94845.72;5073043;28;20490;-60
2023/04/27 02:06:42;;;;;;;2.40;0.97;;;;;;;7.18;100.00;94855.16;5073380;28;20817;-61
2023/04/27 02:09:10;;;;;;;0.53;0.43;;;;;;;7.30;100.00;94844.38;5073050;28;20945;-60
2023/04/27 02:11:39;;;;;;;1.83;0.50;;;;;;;7.14;100.00;94845.38;5073624;28;20518;-60
2023/04/27 02:14:07;;;;;;;0.60;0.30;;;;;;;7.22;100.00;94845.66;5073762;28;20465;-61
2023/04/27 02:16:37;;;;;;;0.43;0.30;;;;;;;7.13;100.00;94854.34;5072762;28;20527;-61
2023/04/27 02:19:06;;;;;;;0.40;0.30;;;;;;;7.33;100.00;94849.13;5073663;28;20433;-60
2023/04/27 02:21:35;;;;;;;0.53;0.40;;;;;;;7.14;100.00;94853.28;5072601;28;20481;-61
2023/04/27 02:24:04;;;;;;;0.87;0.87;;;;;;;6.70;100.00;94750.94;5072312;28;20499;-61
2023/04/27 02:26:32;;;;;;;1.27;0.50;;;;;;;7.39;100.00;94851.50;5072913;28;20515;-61
2023/04/27 02:29:01;;;;;;;1.03;0.40;;;;;;;7.42;100.00;94851.00;5073461;28;20444;-61
2023/04/27 02:31:30;;;;;;;0.40;0.30;;;;;;;7.48;100.00;94838.63;5072822;28;20583;-61
2023/04/27 02:34:00;;;;;;;0.40;0.30;;;;;;;7.48;100.00;94863.16;5073336;28;20807;-61
2023/04/27 02:36:28;;;;;;;0.47;0.47;;;;;;;7.59;100.00;94861.28;5072768;28;20437;-60
2023/04/27 02:38:57;;;;;;;0.43;0.43;;;;;;;7.61;100.00;94852.06;5072727;28;20452;-61
2023/04/27 02:41:26;;;;;;;0.97;0.97;;;;;;;7.98;100.00;94856.34;5072768;28;20504;-61
2023/04/27 02:43:55;;;;;;;0.40;0.40;;;;;;;8.13;100.00;94835.22;5072414;28;20478;-60
2023/04/27 02:46:23;;;;;;;0.30;0.20;;;;;;;8.45;97.59;94854.22;5072038;28;20448;-61
2023/04/27 02:48:52;;;;;;;0.40;0.30;;;;;;;8.40;100.00;94869.28;5072848;28;20896;-61
2023/04/27 02:51:21;;;;;;;0.93;0.93;;;;;;;8.35;100.00;94864.78;5073057;28;20440;-61
2023/04/27 02:53:50;;;;;;;0.40;0.30;;;;;;;8.32;100.00;94872.47;5072765;28;20525;-61
2023/04/27 02:56:18;;;;;;;0.33;0.30;;;;;;;8.09;100.00;94865.84;5072440;28;20937;-62
2023/04/27 02:58:46;;;;;;;0.30;0.20;;;;;;;8.09;100.00;94873.75;5072529;28;20437;-61
2023/04/27 03:01:16;;;;;;;0.30;0.20;;;;;;;8.18;100.00;94872.16;5072245;28;20480;-61
2023/04/27 03:03:47;;;;;;;0.40;0.30;;;;;;;8.19;100.00;94873.75;5072663;28;20481;-61
2023/04/27 03:06:16;;;;;;;0.40;0.30;;;;;;;8.25;100.00;94878.75;5072195;28;20529;-61
2023/04/27 03:08:46;;;;;;;0.80;0.40;;;;;;;8.22;100.00;94875.88;5072338;28;20438;-60
2023/04/27 03:11:14;;;;;;;0.30;0.20;;;;;;;8.00;100.00;94876.13;5072048;28;20480;-61
2023/04/27 03:13:43;;;;;;;0.67;0.23;;;;;;;8.08;100.00;94885.38;5071882;28;20483;-61
2023/04/27 03:16:11;;;;;;;0.40;0.30;;;;;;;8.09;100.00;94882.47;5072252;28;20486;-61
2023/04/27 03:18:40;;;;;;;0.50;0.30;;;;;;;8.10;100.00;94862.94;5071964;28;20433;-61
2023/04/27 03:21:10;;;;;;;0.30;0.20;;;;;;;8.12;100.00;94881.16;5071941;28;20444;-61
2023/04/27 03:23:39;;;;;;;0.30;0.20;;;;;;;8.15;100.00;94885.88;5071410;28;20480;-61
2023/04/27 03:26:09;;;;;;;0.60;0.60;;;;;;;7.95;100.00;94889.31;5071553;28;20472;-61
2023/04/27 03:28:38;;;;;;;0.60;0.60;;;;;;;7.92;100.00;94889.06;5071656;28;20437;-61
2023/04/27 03:31:07;;;;;;;0.40;0.30;;;;;;;7.91;100.00;94890.13;5071854;28;20469;-61
2023/04/27 03:33:35;;;;;;;0.50;0.50;;;;;;;7.95;100.00;94891.16;5071500;28;20443;-60
2023/04/27 03:36:05;;;;;;;1.30;1.20;;;;;;;7.89;100.00;94908.06;5071827;28;20472;-61
2023/04/27 03:38:35;;;;;;;4.40;1.43;;;;;;;8.08;100.00;94906.47;5071694;28;20525;-61
2023/04/27 03:41:03;;;;;;;1.10;1.10;;;;;;;7.63;100.00;94834.16;5071737;28;20434;-60
2023/04/27 03:43:33;;;;;;;2.13;2.03;;;;;;;8.22;100.00;94913.59;5071459;28;20473;-60
2023/04/27 03:46:01;;;;;;;0.60;0.60;;;;;;;8.26;100.00;94911.25;5071510;28;20506;-60
2023/04/27 03:48:29;;;;;;;2.83;1.60;;;;;;;8.25;100.00;94914.94;5071768;28;20448;-61
2023/04/27 03:50:58;;;;;;;2.43;0.97;;;;;;;8.17;100.00;94916.25;5071523;28;20941;-61
2023/04/27 03:53:26;;;;;;;1.03;0.97;;;;;;;7.83;100.00;94880.88;5071443;28;20882;-61
2023/04/27 03:55:54;;;;;;;5.03;1.07;;;;;;;8.00;100.00;94917.56;5071824;28;20441;-58
2023/04/27 03:58:23;;;;;;;0.93;0.93;;;;;;;8.19;100.00;94918.63;5070451;28;20495;-61
2023/04/27 04:00:53;;;;;;;1.83;1.23;;;;;;;8.36;100.00;94932.41;5071395;28;20453;-61
2023/04/27 04:03:21;;;;;;;0.70;0.50;;;;;;;8.41;100.00;94934.22;5071078;28;20487;-61
2023/04/27 04:05:50;;;;;;;1.73;0.37;;;;;;;8.41;100.00;94939.50;5071180;28;20445;-60
2023/04/27 04:08:18;;;;;;;3.50;1.70;;;;;;;8.53;100.00;94934.75;5071086;28;20448;-60
2023/04/27 04:10:47;;;;;;;1.27;1.27;;;;;;;8.53;100.00;94943.47;5071247;28;20473;-61
2023/04/27 04:13:15;;;;;;;0.80;0.80;;;;;;;8.55;99.62;94941.34;5071275;28;20441;-60
2023/04/27 04:15:43;;;;;;;0.80;0.40;;;;;;;8.48;100.00;94951.41;5071398;28;20444;-60
2023/04/27 04:18:13;;;;;;;1.57;1.47;;;;;;;8.62;99.33;94949.81;5071175;28;20976;-60
2023/04/27 04:20:42;;;;;;;0.60;0.40;;;;;;;8.58;99.58;94947.94;5071082;28;20525;-61
2023/04/27 04:23:11;;;;;;;3.23;0.57;;;;;;;8.57;99.19;94957.75;5070872;28;21064;-60
2023/04/27 04:25:40;;;;;;;0.43;0.43;;;;;;;7.92;100.00;94889.06;5071099;28;20506;-62
2023/04/27 04:28:08;;;;;;;1.57;1.47;;;;;;;8.21;100.00;94933.16;5070843;28;20522;-60
2023/04/27 04:30:38;;;;;;;1.20;0.87;;;;;;;8.18;100.00;94964.56;5070772;28;20471;-60
2023/04/27 04:33:07;;;;;;;1.03;0.93;;;;;;;7.76;100.00;94975.31;5071208;28;20500;-60
2023/04/27 04:35:40;;;;;;;2.07;1.93;;;;;;;7.69;100.00;94978.16;5044208;28;20532;-60
2023/04/27 04:38:08;;;;;;;12.33;2.03;;;;;;;7.98;100.00;94983.00;5070762;28;20445;-59
2023/04/27 04:40:39;;;;;;;0.80;0.80;;;;;;;8.06;100.00;94971.94;5070695;28;20581;-59
2023/04/27 04:43:07;;;;;;;1.50;1.50;;;;;;;8.16;99.83;94977.22;5070418;28;20472;-60
2023/04/27 04:45:35;;;;;;;2.37;2.27;;;;;;;8.11;96.08;94974.59;5070632;28;20438;-58
2023/04/27 04:48:04;;;;;;;1.43;1.30;;;;;;;8.29;97.39;94995.25;5069823;28;20456;-59
2023/04/27 04:50:32;;;;;;;2.27;2.10;;;;;;;8.56;93.07;94979.94;5070488;28;20446;-59
2023/04/27 04:53:02;;;;;;;2.30;2.20;;;;;;;8.37;91.02;94986.81;5070650;28;20505;-58
2023/04/27 04:55:30;;;;;;;3.23;1.07;;;;;;;8.76;87.92;94987.06;5070939;28;20905;-58
2023/04/27 04:57:59;;;;;;;2.83;1.70;;;;;;;9.06;86.60;94984.38;5070329;28;20946;-60
2023/04/27 05:00:27;;;;;;;0.83;0.83;;;;;;;9.29;89.07;94983.00;5070839;28;20994;-58
2023/04/27 05:02:55;;;;;;;0.73;0.73;;;;;;;9.21;84.02;94981.69;5070617;28;20567;-59
2023/04/27 05:05:24;;;;;;;0.30;0.20;;;;;;;9.59;83.42;94981.03;5071190;28;20437;-60
2023/04/27 05:07:53;;;;;;;0.40;0.30;;;;;;;9.59;81.83;94988.19;5070218;28;20502;-59
2023/04/27 05:10:22;;;;;;;0.30;0.23;;;;;;;9.54;80.39;94981.06;5072542;28;20493;-59
2023/04/27 05:12:51;;;;;;;0.40;0.30;;;;;;;9.38;80.73;94986.69;5074181;28;20449;-59
2023/04/27 05:15:37;;;;;;;3.23;0.40;;;;;;;9.65;80.84;94987.09;5074161;28;20435;-60
2023/04/27 05:18:06;;;;;;;0.40;0.40;;;;;;;10.06;79.68;94983.22;5074506;28;20485;-60
2023/04/27 05:20:35;;;;;;;0.40;0.23;;;;;;;9.86;78.89;94988.63;5073925;28;20435;-60
2023/04/27 05:23:03;;;;;;;0.30;0.30;;;;;;;9.60;79.36;94915.69;5074171;28;20560;-59
2023/04/27 05:25:40;;;;;;;0.40;0.37;;;;;;;9.73;78.72;94988.41;5074294;28;21013;-59
2023/04/27 05:28:08;;;;;;;0.83;0.83;;;;;;;10.04;77.07;94990.63;5074618;28;20441;-61
2023/04/27 05:30:37;;;;;;;0.40;0.30;;;;;;;10.19;76.63;94987.91;5074349;28;20444;-60
2023/04/27 05:33:05;;;;;;;0.40;0.40;;;;;;;10.60;75.92;94975.19;5073930;28;20450;-63
2023/04/27 05:35:34;;;;;;;0.40;0.37;;;;;;;10.59;74.14;94980.75;5048320;28;20799;-60
2023/04/27 05:38:03;;;;;;;0.93;0.50;;;;;;;10.15;72.04;94875.66;5073528;28;20472;-60
2023/04/27 05:40:32;;;;;;;0.30;0.20;;;;;;;10.94;73.01;94980.47;5074125;28;20495;-60
2023/04/27 05:43:04;;;;;;;0.40;0.30;;;;;;;11.22;71.75;94974.38;5073511;28;20437;-60
2023/04/27 05:45:33;;;;;;;0.30;0.20;;;;;;;11.56;70.93;94974.25;5073924;28;21001;-60
2023/04/27 05:48:01;;;;;;;0.40;0.40;;;;;;;11.33;70.66;94975.81;5073310;28;20440;-60
2023/04/27 05:50:29;;;;;;;0.40;0.30;;;;;;;11.61;76.51;94986.69;5074178;28;20449;-60
2023/04/27 05:52:58;;;;;;;0.87;0.80;;;;;;;12.04;76.66;94983.75;5073499;28;20517;-60
2023/04/27 05:55:26;;;;;;;0.47;0.33;;;;;;;12.35;78.73;94976.16;5072933;28;20441;-59
2023/04/27 05:57:56;;;;;;;0.63;0.43;;;;;;;11.15;81.89;94991.69;5073378;28;20437;-59
2023/04/27 06:00:35;;;;;;;0.53;0.53;;;;;;;11.43;82.05;94996.16;5073583;28;20437;-60
2023/04/27 06:03:03;;;;;;;1.13;1.13;;;;;;;11.27;77.41;94995.53;5073860;28;20523;-59
2023/04/27 06:05:33;;;;;;;1.07;0.90;;;;;;;10.76;80.95;94966.03;5073396;28;20441;-60
2023/04/27 06:08:01;;;;;;;0.63;0.63;;;;;;;11.11;80.18;94988.78;5047760;28;20487;-60
2023/04/27 06:10:29;;;;;;;0.50;0.40;;;;;;;12.19;77.83;94990.75;5073405;28;20437;-60
2023/04/27 06:12:59;;;;;;;0.70;0.67;;;;;;;11.93;77.41;94997.47;5072774;28;20584;-61
2023/04/27 06:15:28;;;;;;;0.50;0.40;;;;;;;12.02;77.82;94993.09;5072863;28;20442;-61
2023/04/27 06:17:56;;;;;;;0.50;0.43;;;;;;;12.38;76.30;94999.50;5073118;28;20886;-60
2023/04/27 06:20:25;;;;;;;0.77;0.40;;;;;;;12.87;73.40;94998.25;5073393;28;20472;-60
2023/04/27 06:22:53;;;;;;;0.60;0.50;;;;;;;13.25;70.13;94927.91;5071909;28;20469;-61
2023/04/27 06:25:22;;;;;;;0.50;0.40;;;;;;;14.12;67.13;94941.81;5072341;28;21242;-62
2023/04/27 06:27:54;;;;;;;0.40;0.30;;;;;;;15.17;65.64;94975.91;5073172;28;20441;-63
2023/04/27 06:30:24;;;;;;;0.90;0.90;;;;;;;15.36;62.84;94959.66;5072995;28;20448;-63
2023/04/27 06:32:52;;;;;;;0.40;0.33;;;;;;;15.45;59.87;94978.41;5073263;28;20439;-62
2023/04/27 06:35:21;;;;;;;0.70;0.63;;;;;;;16.39;58.13;94979.44;5072323;28;20434;-62
2023/04/27 06:37:50;;;;;;;1.70;1.70;;;;;;;15.99;56.44;94983.31;5073099;28;20434;-63
2023/04/27 06:40:18;;;;;;;0.47;0.40;;;;;;;15.76;56.44;94981.84;5072454;28;20441;-64
2023/04/27 06:42:46;;;;;;;0.93;0.50;;;;;;;15.82;56.63;94972.59;5072512;28;20452;-64
2023/04/27 06:45:15;;;;;;;0.60;0.40;;;;;;;15.88;56.82;94990.06;5072466;28;20556;-64
2023/04/27 06:47:44;;;;;;;1.13;0.40;;;;;;;15.87;59.23;94977.78;5072246;28;20938;-66
2023/04/27 06:50:13;;;;;;;0.40;0.30;;;;;;;15.61;57.52;94835.34;5072711;28;20827;-69
2023/04/27 06:52:41;;;;;;;1.53;0.47;;;;;;;16.98;55.92;94985.94;5072335;28;20591;-68
2023/04/27 06:55:10;;;;;;;0.93;0.93;;;;;;;17.46;55.02;94976.84;5072505;28;20592;-65
2023/04/27 06:57:38;;;;;;;1.50;1.30;;;;;;;17.19;53.17;94977.25;5072281;28;20517;-65
2023/04/27 07:00:08;;;;;;;0.40;0.30;;;;;;;17.96;49.08;94980.44;5072339;28;20947;-64
2023/04/27 07:02:36;;;;;;;0.90;0.90;;;;;;;17.13;50.89;94964.03;5072265;28;20476;-65
2023/04/27 07:05:06;;;;;;;0.40;0.30;;;;;;;16.97;52.02;94986.28;5078451;28;21027;-66
2023/04/27 07:07:35;;;;;;;6.17;0.63;;;;;;;18.11;49.72;94984.50;5072899;28;20465;-68
2023/04/27 07:10:03;;;;;;;1.63;0.70;;;;;;;17.52;48.89;94981.75;5071978;28;20438;-69
2023/04/27 07:12:32;;;;;;;0.47;0.40;;;;;;;17.86;48.60;94910.34;5071594;28;20426;-62
2023/04/27 07:15:02;;;;;;;0.40;0.30;;;;;;;17.89;48.86;94984.75;5071766;28;20433;-60
2023/04/27 07:17:30;;;;;;;0.50;0.40;;;;;;;17.51;54.91;94982.81;5071563;28;20434;-61
2023/04/27 07:19:59;;;;;;;0.80;0.30;;;;;;;17.74;48.67;94978.84;5072192;28;20438;-61
2023/04/27 07:22:29;;;;;;;0.40;0.30;;;;;;;17.44;48.82;94971.03;5071962;28;21037;-69
2023/04/27 07:24:57;;;;;;;0.40;0.30;;;;;;;18.02;47.33;94971.13;5071733;28;20525;-72
2023/04/27 07:27:26;;;;;;;0.47;0.37;;;;;;;18.34;48.23;94951.66;5045328;28;20437;-68
2023/04/27 07:29:55;;;;;;;0.50;0.40;;;;;;;18.39;46.16;94964.13;5071882;28;20886;-66
2023/04/27 07:32:23;;;;;;;0.50;0.40;;;;;;;18.77;47.84;94966.72;5071556;28;20468;-68
2023/04/27 07:34:54;;;;;;;0.40;0.30;;;;;;;19.24;45.84;94967.19;5071181;28;20826;-65
2023/04/27 07:37:23;;;;;;;1.47;0.93;;;;;;;19.62;47.04;94965.88;5071820;28;20438;-64
2023/04/27 07:39:53;;;;;;;0.40;0.30;;;;;;;19.99;43.77;94961.28;5071508;28;20438;-64
2023/04/27 07:42:22;;;;;;;0.53;0.50;;;;;;;20.49;42.97;94952.06;5071348;28;20893;-63
2023/04/27 07:44:51;;;;;;;0.50;0.50;;;;;;;20.52;43.65;94970.22;5071434;28;20616;-63
2023/04/27 07:47:20;;;;;;;0.30;0.20;;;;;;;20.35;43.29;94962.41;5071682;28;20445;-63
2023/04/27 07:49:49;;;;;;;0.60;0.30;;;;;;;20.32;43.39;94958.47;5071088;28;20461;-61
2023/04/27 07:52:17;;;;;;;0.40;0.30;;;;;;;19.43;41.17;94956.78;5071060;28;20512;-61
2023/04/27 07:54:45;;;;;;;0.80;0.60;;;;;;;19.92;39.21;94954.91;5071114;28;20455;-60
2023/04/27 07:57:15;;;;;;;0.50;0.30;;;;;;;20.58;39.93;94953.50;5071689;28;20532;-62
2023/04/27 07:59:44;;;;;;;0.40;0.30;;;;;;;21.14;39.74;94950.84;5069718;28;20441;-62
2023/04/27 08:02:13;;;;;;;0.40;0.30;;;;;;;21.27;43.58;94944.28;5064344;28;20977;-62
2023/04/27 08:04:47;;;;;;;0.43;0.30;;;;;;;22.29;40.37;94943.31;5071318;28;20484;-63
2023/04/27 08:07:17;;;;;;;0.40;0.30;;;;;;;22.30;38.35;94948.38;5071014;28;20545;-63
2023/04/27 08:09:46;;;;;;;0.40;0.30;;;;;;;21.75;40.47;94951.28;5071498;28;20465;-62
2023/04/27 08:12:16;;;;;;;0.40;0.30;;;;;;;21.97;40.03;94951.47;5071609;28;20444;-64
2023/04/27 08:14:44;;;;;;;0.40;0.30;;;;;;;21.62;41.73;94949.78;5071370;28;20495;-64
2023/04/27 08:17:12;;;;;;;0.60;0.60;;;;;;;21.95;40.72;94951.03;5071507;28;20815;-65
2023/04/27 08:19:41;;;;;;;0.80;0.30;;;;;;;21.19;39.52;94888.63;5071210;28;20480;-64
2023/04/27 08:22:09;;;;;;;1.47;0.60;;;;;;;21.36;41.51;94940.28;5070523;28;20437;-64
2023/04/27 08:24:38;;;;;;;0.40;0.30;;;;;;;20.31;39.82;94951.53;5061855;28;20485;-64
2023/04/27 08:27:06;;;;;;;0.70;0.40;;;;;;;21.33;38.80;94945.56;5071462;28;20440;-65
2023/04/27 08:29:36;;;;;;;0.30;0.20;;;;;;;20.87;40.46;94866.19;5071459;28;20473;-64
2023/04/27 08:32:05;;;;;;;0.60;0.40;;;;;;;21.32;37.30;94944.81;5071098;28;20462;-64
2023/04/27 08:34:34;;;;;;;0.40;0.33;;;;;;;21.60;35.73;94946.66;5071236;28;20473;-64
2023/04/27 08:37:03;;;;;;;0.40;0.30;;;;;;;22.23;35.45;94921.22;5071232;28;20445;-64
2023/04/27 08:39:31;;;;;;;1.00;0.50;;;;;;;22.90;33.92;94933.44;5071114;28;20463;-63
2023/04/27 08:42:00;;;;;;;0.47;0.40;;;;;;;23.37;35.57;94941.34;5070692;28;20473;-64
2023/04/27 08:44:29;;;;;;;0.40;0.30;;;;;;;24.25;37.85;94933.91;5070811;28;20682;-62
2023/04/27 08:46:59;;;;;;;0.57;0.50;;;;;;;24.62;38.24;94941.03;5075010;28;20490;-64
2023/04/27 08:49:27;;;;;;;0.40;0.30;;;;;;;23.22;34.06;94929.47;5074598;28;20451;-63
2023/04/27 08:51:55;;;;;;;0.50;0.40;;;;;;;20.72;36.40;94939.66;5074664;28;21134;-64
2023/04/27 08:54:24;;;;;;;0.30;0.20;;;;;;;22.17;37.09;94925.31;5074681;28;20476;-65
2023/04/27 08:56:52;;;;;;;0.40;0.40;;;;;;;21.74;35.75;94936.22;5074621;28;20437;-65
2023/04/27 08:59:21;;;;;;;0.40;0.30;;;;;;;21.70;35.02;94929.94;5074696;28;21025;-64
2023/04/27 09:01:49;;;;;;;0.60;0.33;;;;;;;22.94;34.38;94918.09;5074326;28;20480;-64
2023/04/27 09:04:19;;;;;;;0.40;0.30;;;;;;;22.82;35.97;94925.56;5074669;28;20444;-64
2023/04/27 09:06:49;;;;;;;0.70;0.60;;;;;;;20.47;36.08;94930.06;5074916;28;20556;-65
2023/04/27 09:09:23;;;;;;;0.40;0.30;;;;;;;20.94;39.49;94931.03;5074769;28;20440;-46
2023/04/27 09:11:52;;;;;;;0.30;0.20;;;;;;;19.31;41.52;94929.81;5074868;28;20508;-46
2023/04/27 09:14:22;;;;;;;0.47;0.40;;;;;;;20.42;39.97;94922.22;5074041;28;20462;-60
2023/04/27 09:16:58;;;;;;;0.30;0.20;;;;;;;20.79;39.80;94934.47;5074266;28;20442;-53
2023/04/27 09:19:29;;;;;;;0.40;0.20;;;;;;;21.09;39.79;94924.94;5074352;28;20441;-71
2023/04/27 09:22:08;;;;;;;0.30;0.20;;;;;;;19.68;41.04;94860.78;5074878;28;20445;-61
2023/04/27 09:24:36;;;;;;;0.70;0.60;;;;;;;19.34;41.64;94935.31;5074195;28;20501;-57
2023/04/27 09:27:07;;;;;;;0.40;0.30;;;;;;;19.60;41.90;94875.91;5073585;28;20520;-64
2023/04/27 09:29:37;;;;;;;0.40;0.30;;;;;;;20.40;38.96;94935.25;5074326;28;20846;-63
2023/04/27 09:32:16;;;;;;;2.63;0.40;;;;;;;20.36;39.21;94934.38;5074171;28;20840;-61
2023/04/27 09:34:46;;;;;;;0.40;0.20;;;;;;;19.43;41.18;94906.47;5073601;28;20434;-60
2023/04/27 09:37:16;;;;;;;0.40;0.30;;;;;;;19.57;42.17;94933.81;5074067;28;20938;-59
2023/04/27 09:39:45;;;;;;;0.53;0.30;;;;;;;19.85;43.92;94896.28;5073824;28;20491;-60
2023/04/27 09:42:14;;;;;;;0.50;0.40;;;;;;;20.40;39.85;94933.34;5073828;28;20444;-59
2023/04/27 09:44:43;;;;;;;0.40;0.20;;;;;;;20.63;39.12;94930.94;5073991;28;20473;-59
2023/04/27 09:47:13;;;;;;;0.50;0.40;;;;;;;19.51;40.74;94923.59;5073447;28;20611;-59
2023/04/27 09:49:42;;;;;;;0.70;0.70;;;;;;;19.62;40.29;94924.75;5074007;28;20434;-60
2023/04/27 09:52:12;;;;;;;0.40;0.33;;;;;;;20.30;39.04;94914.97;5073786;28;20448;-63
2023/04/27 09:54:41;;;;;;;1.57;0.33;;;;;;;22.36;36.48;94911.09;5073497;28;20488;-66
2023/04/27 09:57:24;;;;;;;0.40;0.30;;;;;;;22.26;36.56;94909.72;5073789;28;20473;-65
2023/04/27 10:00:09;;;;;;;0.60;0.50;;;;;;;22.54;34.21;94915.69;5047428;28;20472;-63
2023/04/27 10:02:46;;;;;;;0.77;0.67;;;;;;;23.84;33.79;94844.34;5073360;28;20460;-64
2023/04/27 10:05:38;;;;;;;0.40;0.30;;;;;;;23.03;35.17;94899.72;5073845;28;20438;-68
2023/04/27 10:08:10;;;;;;;0.50;0.40;;;;;;;21.81;36.26;94909.38;5048449;28;20452;-68
2023/04/27 10:10:48;;;;;;;0.70;0.60;;;;;;;22.13;35.38;94787.59;5073615;28;20495;-65
2023/04/27 10:13:25;;;;;;;0.40;0.30;;;;;;;23.76;34.31;94885.16;5063661;28;20467;-65
2023/04/27 10:15:54;;;;;;;0.47;0.40;;;;;;;23.17;33.48;94864.06;5071743;28;20437;-65
2023/04/27 10:18:27;;;;;;;0.40;0.30;;;;;;;24.13;32.46;94848.28;5073264;28;20469;-63
2023/04/27 10:20:55;;;;;;;0.30;0.30;;;;;;;24.68;35.39;94890.00;5073051;28;20473;-62
2023/04/27 10:23:26;;;;;;;4.13;2.37;;;;;;;23.70;33.30;94894.75;5072917;28;20499;-60
2023/04/27 10:25:56;;;;;;;0.40;0.30;;;;;;;24.06;35.78;94890.69;5072982;28;20516;-68
2023/04/27 10:28:24;;;;;;;0.60;0.40;;;;;;;23.29;35.57;94896.34;5072535;28;20938;-68
2023/04/27 10:30:52;;;;;;;0.40;0.40;;;;;;;22.69;34.54;94890.56;5073257;28;20437;-69
2023/04/27 10:33:23;;;;;;;0.70;0.70;;;;;;;20.75;37.50;94888.56;5072648;28;20469;-69
2023/04/27 10:35:57;;;;;;;0.30;0.20;;;;;;;21.52;36.36;94887.16;5072944;28;20476;-68
2023/04/27 10:38:30;;;;;;;0.50;0.40;;;;;;;20.99;37.94;94884.19;5072334;28;20806;-68
2023/04/27 10:41:01;;;;;;;0.70;0.60;;;;;;;21.15;38.71;94893.91;5072766;28;20976;-66
2023/04/27 10:43:30;;;;;;;0.60;0.40;;;;;;;21.66;35.65;94883.22;5072460;28;20528;-68
2023/04/27 10:46:08;;;;;;;0.40;0.40;;;;;;;21.36;37.43;94891.75;5072821;28;20527;-63
2023/04/27 10:48:37;;;;;;;0.50;0.40;;;;;;;22.14;34.86;94888.22;5059784;28;20441;-65
2023/04/27 10:51:05;;;;;;;0.40;0.30;;;;;;;22.89;37.22;94885.19;5072305;28;20522;-64
2023/04/27 10:53:36;;;;;;;0.40;0.40;;;;;;;23.87;34.81;94883.41;5072774;28;20432;-63
2023/04/27 10:56:05;;;;;;;0.30;0.20;;;;;;;23.59;34.33;94869.44;5071992;28;20529;-62
2023/04/27 10:58:34;;;;;;;0.40;0.40;;;;;;;24.19;35.98;94892.03;5072571;28;20440;-63
2023/04/27 11:01:24;;;;;;;1.47;1.03;;;;;;;23.93;33.06;94876.56;5071862;28;21088;-65
2023/04/27 11:03:55;;;;;;;0.40;0.30;;;;;;;23.91;33.49;94874.22;5072323;28;20905;-66
2023/04/27 11:06:26;;;;;;;0.60;0.40;;;;;;;23.92;36.34;94869.56;5072531;28;20546;-66
2023/04/27 11:08:57;;;;;;;1.17;1.07;;;;;;;24.58;34.17;94872.47;5071613;28;20527;-64
2023/04/27 11:11:25;;;;;;;0.40;0.30;;;;;;;24.34;34.19;94869.41;5072451;28;20794;-65
2023/04/27 11:13:55;;;;;;;0.50;0.30;;;;;;;25.60;31.39;94863.91;5071924;28;20476;-66
2023/04/27 11:16:24;;;;;;;0.40;0.40;;;;;;;24.43;31.18;94868.03;5071933;28;20793;-65
2023/04/27 11:18:52;;;;;;;0.47;0.33;;;;;;;25.19;28.88;94861.16;5072057;28;20487;-66
2023/04/27 11:21:22;;;;;;;0.33;0.27;;;;;;;25.74;31.94;94864.00;5071893;28;20528;-66
2023/04/27 11:23:50;;;;;;;0.50;0.40;;;;;;;25.56;32.94;94865.78;5071148;28;20441;-66
2023/04/27 11:26:22;;;;;;;0.40;0.40;;;;;;;25.34;29.38;94828.75;5070576;28;20509;-66
2023/04/27 11:28:58;;;;;;;0.47;0.47;;;;;;;25.93;29.50;94863.78;5071150;28;20488;-66
2023/04/27 11:31:27;;;;;;;0.50;0.30;;;;;;;25.78;29.72;94871.00;5058906;28;20969;-66
2023/04/27 11:33:56;;;;;;;0.80;0.80;;;;;;;24.91;30.68;94869.00;5046441;28;20437;-66
2023/04/27 11:36:26;;;;;;;0.40;0.30;;;;;;;23.56;31.97;94862.84;5075685;28;20429;-65
2023/04/27 11:38:58;;;;;;;0.50;0.30;;;;;;;24.28;31.50;94873.59;5075326;28;20879;-65
2023/04/27 11:41:35;;;;;;;0.63;0.37;;;;;;;25.11;29.88;94837.84;5071437;28;20434;-67
2023/04/27 11:44:07;;;;;;;0.40;0.40;;;;;;;24.92;29.10;94851.56;5071224;28;20523;-67